Dorton Branch, Kentucky
Current Conditions -  °F | °C
As of 2:15 PM on Friday 21 Nov 2014 (Local Time) from K1A6 Reporting Station
Clear Clear  
Wind Chill: 45°   Ceiling: Unl
Heat Index: 45°   Visibility: 10mi
Dew Point: 11°   Wind: 0mph
Humidity: 26%   Direction: NA
Pressure: 30.43"   Gusts: NA
Location:  36.7417°N, 83.6911°W
Report Text: K1A6 211915Z AUTO 00000KT 10SM CLR 07/M11 A3043 RMK AO2 T00731114
Loading
Personal Weather Stations






























Interactive Weather Map New forecast layout! Learn more

10-Day Weather Forecast

Advertisements
Track Severe Weather on mobile